Time;durP1;ratioP1;P1;durP2;ratioP2;P2;SDS_P1;SDS_P2;PMS_P1;PMS_P2;Temp;Humidity;BMP_temperature;BMP_pressure;BME280_temperature;BME280_humidity;BME280_pressure;Samples;Min_cycle;Max_cycle;Signal;HPM_P1;HPM_P2
2022/01/07 00:02:14;;;;;;;5.72;4.20;;;;;;;;;;5036890;28;20481;-67
2022/01/07 00:04:40;;;;;;;7.18;4.82;;;;;;;;;;5040007;28;20041;-68
2022/01/07 00:07:05;;;;;;;4.35;3.95;;;;;;;;;;5046042;28;20036;-68
2022/01/07 00:09:31;;;;;;;3.72;3.35;;;;;;;;;;5038185;28;20091;-66
2022/01/07 00:11:57;;;;;;;4.13;3.72;;;;;;;;;;5037880;28;20695;-67
2022/01/07 00:14:22;;;;;;;3.70;3.08;;;;;;;;;;5040256;28;20472;-67
2022/01/07 00:16:48;;;;;;;3.95;3.55;;;;;;;;;;5041803;28;20044;-67
2022/01/07 00:19:15;;;;;;;4.40;3.55;;;;;;;;;;5038913;28;20459;-67
2022/01/07 00:21:41;;;;;;;4.05;3.65;;;;;;;;;;5038328;28;20064;-67
2022/01/07 00:24:06;;;;;;;4.95;4.25;;;;;;;;;;5024978;28;20034;-67
2022/01/07 00:26:32;;;;;;;4.47;3.42;;;;;;;;;;5041495;28;20068;-67
2022/01/07 00:28:57;;;;;;;5.85;3.80;;;;;;;;;;5037847;28;20128;-66
2022/01/07 00:31:22;;;;;;;3.95;3.53;;;;;;;;;;5037426;28;20372;-67
2022/01/07 00:33:48;;;;;;;4.07;3.58;;;;;;;;;;5038393;28;20041;-67
2022/01/07 00:36:13;;;;;;;4.78;4.28;;;;;;;;;;5034745;28;20033;-67
2022/01/07 00:38:38;;;;;;;4.93;4.28;;;;;;;;;;5037996;28;20041;-68
2022/01/07 00:41:05;;;;;;;4.40;3.53;;;;;;;;;;5037614;28;20362;-67
2022/01/07 00:43:30;;;;;;;8.15;4.15;;;;;;;;;;5041259;28;20114;-66
2022/01/07 00:45:55;;;;;;;8.57;3.72;;;;;;;;;;5042700;28;20071;-66
2022/01/07 00:48:21;;;;;;;4.85;3.72;;;;;;;;;;5043856;28;20087;-68
2022/01/07 00:50:46;;;;;;;9.10;4.75;;;;;;;;;;5042096;28;20157;-67
2022/01/07 00:53:12;;;;;;;5.65;3.95;;;;;;;;;;5042944;28;20037;-67
2022/01/07 00:55:37;;;;;;;4.57;3.85;;;;;;;;;;5041971;28;20116;-67
2022/01/07 00:58:03;;;;;;;4.13;3.55;;;;;;;;;;5044229;28;20418;-67
2022/01/07 01:00:29;;;;;;;17.15;4.75;;;;;;;;;;5039385;28;20156;-67
2022/01/07 01:02:56;;;;;;;5.18;4.10;;;;;;;;;;5027419;28;20038;-67
2022/01/07 01:05:23;;;;;;;5.22;3.95;;;;;;;;;;5040570;28;20029;-68
2022/01/07 01:07:48;;;;;;;4.38;3.40;;;;;;;;;;5040166;28;20036;-63
2022/01/07 01:10:16;;;;;;;4.82;3.80;;;;;;;;;;5044461;28;20493;-63
2022/01/07 01:12:44;;;;;;;15.65;4.93;;;;;;;;;;5043687;28;20033;-63
2022/01/07 01:15:13;;;;;;;4.95;3.42;;;;;;;;;;5040382;28;20025;-62
2022/01/07 01:17:39;;;;;;;5.40;4.25;;;;;;;;;;5040827;28;20115;-62
2022/01/07 01:20:07;;;;;;;4.07;2.92;;;;;;;;;;5041804;28;20025;-62
2022/01/07 01:22:32;;;;;;;6.35;4.43;;;;;;;;;;5040991;28;20029;-62
2022/01/07 01:24:58;;;;;;;4.25;3.85;;;;;;;;;;5040969;28;20033;-62
2022/01/07 01:27:23;;;;;;;9.90;5.45;;;;;;;;;;5042057;28;20454;-62
2022/01/07 01:29:48;;;;;;;4.85;4.20;;;;;;;;;;5041835;28;20367;-62
2022/01/07 01:32:16;;;;;;;8.70;4.78;;;;;;;;;;5040534;28;20025;-62
2022/01/07 01:34:42;;;;;;;4.55;3.85;;;;;;;;;;5043840;28;20088;-62
2022/01/07 01:37:07;;;;;;;4.80;3.72;;;;;;;;;;5037254;28;20684;-62
2022/01/07 01:39:33;;;;;;;3.92;3.38;;;;;;;;;;5040186;28;20077;-62
2022/01/07 01:41:58;;;;;;;4.55;3.65;;;;;;;;;;5040562;28;20079;-62
2022/01/07 01:44:24;;;;;;;4.45;3.92;;;;;;;;;;5039016;28;20475;-62
2022/01/07 01:46:49;;;;;;;4.28;3.88;;;;;;;;;;5040930;28;20383;-62
2022/01/07 01:49:15;;;;;;;4.97;4.45;;;;;;;;;;5041772;28;20029;-62
2022/01/07 01:51:40;;;;;;;4.30;3.90;;;;;;;;;;5040020;28;20922;-62
2022/01/07 01:54:06;;;;;;;4.40;3.63;;;;;;;;;;5042039;28;20118;-66
2022/01/07 01:56:32;;;;;;;4.90;4.40;;;;;;;;;;5042970;28;20029;-62
2022/01/07 01:58:58;;;;;;;5.45;4.60;;;;;;;;;;5038988;28;20033;-62
2022/01/07 02:01:23;;;;;;;4.20;3.72;;;;;;;;;;5040948;28;20107;-62
2022/01/07 02:03:49;;;;;;;5.95;4.38;;;;;;;;;;5041512;28;20104;-62
2022/01/07 02:06:15;;;;;;;4.38;3.97;;;;;;;;;;5038051;28;20100;-62
2022/01/07 02:08:40;;;;;;;3.58;3.28;;;;;;;;;;5038827;28;20033;-62
2022/01/07 02:11:06;;;;;;;5.78;4.18;;;;;;;;;;5039090;28;20029;-62
2022/01/07 02:13:31;;;;;;;5.68;4.15;;;;;;;;;;5037701;28;20048;-62
2022/01/07 02:15:57;;;;;;;6.22;4.05;;;;;;;;;;5041338;28;20029;-62
2022/01/07 02:18:22;;;;;;;5.80;4.35;;;;;;;;;;5037590;28;20039;-62
2022/01/07 02:20:48;;;;;;;4.78;4.22;;;;;;;;;;5038970;28;20116;-62
2022/01/07 02:23:15;;;;;;;5.68;5.05;;;;;;;;;;5039217;28;20532;-62
2022/01/07 02:25:41;;;;;;;6.80;4.03;;;;;;;;;;5040804;28;20474;-62
2022/01/07 02:28:07;;;;;;;4.32;3.92;;;;;;;;;;5040858;28;20064;-63
2022/01/07 02:30:33;;;;;;;4.80;4.20;;;;;;;;;;5039563;28;20091;-62
2022/01/07 02:32:58;;;;;;;4.10;3.70;;;;;;;;;;5037763;28;20033;-62
2022/01/07 02:35:28;;;;;;;4.22;3.83;;;;;;;;;;5001372;28;1102622;-62
2022/01/07 02:37:53;;;;;;;4.95;4.45;;;;;;;;;;5041993;28;20044;-62
2022/01/07 02:40:19;;;;;;;5.85;4.35;;;;;;;;;;5039635;28;20025;-62
2022/01/07 02:42:45;;;;;;;4.97;4.22;;;;;;;;;;5038945;28;20446;-62
2022/01/07 02:45:11;;;;;;;4.80;3.97;;;;;;;;;;5040467;28;20587;-62
2022/01/07 02:47:59;;;;;;;6.50;5.68;;;;;;;;;;5041438;28;20094;-62
2022/01/07 02:50:36;;;;;;;6.90;4.38;;;;;;;;;;5038058;28;20021;-62
2022/01/07 02:53:04;;;;;;;6.63;4.22;;;;;;;;;;5038999;28;20108;-63
2022/01/07 02:55:30;;;;;;;6.38;4.13;;;;;;;;;;5040081;28;20099;-62
2022/01/07 02:57:56;;;;;;;6.47;4.70;;;;;;;;;;5039680;28;20041;-63
2022/01/07 03:00:23;;;;;;;5.10;3.83;;;;;;;;;;5041404;28;20040;-62
2022/01/07 03:02:51;;;;;;;5.28;4.30;;;;;;;;;;5039667;28;20031;-63
2022/01/07 03:05:17;;;;;;;4.65;4.25;;;;;;;;;;5038121;28;20135;-62
2022/01/07 03:07:47;;;;;;;6.18;4.50;;;;;;;;;;5039808;28;20044;-63
2022/01/07 03:10:13;;;;;;;4.85;4.45;;;;;;;;;;5038110;28;20025;-62
2022/01/07 03:12:40;;;;;;;11.85;4.50;;;;;;;;;;5038727;28;20044;-63
2022/01/07 03:15:06;;;;;;;5.93;4.90;;;;;;;;;;5040323;28;20104;-63
2022/01/07 03:17:32;;;;;;;5.47;4.60;;;;;;;;;;5038452;28;20037;-63
2022/01/07 03:19:57;;;;;;;5.07;4.57;;;;;;;;;;5040039;28;20044;-63
2022/01/07 03:22:23;;;;;;;4.30;3.90;;;;;;;;;;5040744;28;20029;-63
2022/01/07 03:24:48;;;;;;;5.80;4.22;;;;;;;;;;5037599;28;20033;-63
2022/01/07 03:27:14;;;;;;;4.72;4.00;;;;;;;;;;5046136;28;20028;-63
2022/01/07 03:29:39;;;;;;;4.93;3.92;;;;;;;;;;5038857;28;20033;-63
2022/01/07 03:32:05;;;;;;;4.72;4.20;;;;;;;;;;5036961;28;20113;-63
2022/01/07 03:34:30;;;;;;;4.40;3.83;;;;;;;;;;5038877;28;20033;-63
2022/01/07 03:36:56;;;;;;;4.13;3.72;;;;;;;;;;5037850;28;20060;-63
2022/01/07 03:39:21;;;;;;;5.55;4.65;;;;;;;;;;5038644;28;20025;-63
2022/01/07 03:41:47;;;;;;;4.53;4.07;;;;;;;;;;5039090;28;20037;-63
2022/01/07 03:44:12;;;;;;;5.05;4.55;;;;;;;;;;5036274;28;20057;-63
2022/01/07 03:46:38;;;;;;;5.55;4.88;;;;;;;;;;5038495;28;20071;-63
2022/01/07 03:49:03;;;;;;;6.13;3.70;;;;;;;;;;5040087;28;20132;-63
2022/01/07 03:51:29;;;;;;;5.68;4.75;;;;;;;;;;5041255;28;20086;-63
2022/01/07 03:53:54;;;;;;;5.57;4.32;;;;;;;;;;5039154;28;20612;-63
2022/01/07 03:56:20;;;;;;;5.63;5.03;;;;;;;;;;5038307;28;20364;-63
2022/01/07 03:58:46;;;;;;;4.97;4.47;;;;;;;;;;5035836;28;20462;-63
2022/01/07 04:01:12;;;;;;;4.43;4.03;;;;;;;;;;5040992;28;20038;-63
2022/01/07 04:03:37;;;;;;;6.40;4.80;;;;;;;;;;5039235;28;20031;-63
2022/01/07 04:06:02;;;;;;;4.47;3.45;;;;;;;;;;5037095;28;20127;-63
2022/01/07 04:08:28;;;;;;;4.25;3.85;;;;;;;;;;5039312;28;20033;-63
2022/01/07 04:10:53;;;;;;;5.43;4.38;;;;;;;;;;5039340;28;20362;-63
2022/01/07 04:13:18;;;;;;;5.25;4.78;;;;;;;;;;5036278;28;20036;-63
2022/01/07 04:15:44;;;;;;;6.85;5.18;;;;;;;;;;5037132;28;20040;-63
2022/01/07 04:18:10;;;;;;;8.88;5.00;;;;;;;;;;5039094;28;20061;-63
2022/01/07 04:20:35;;;;;;;8.05;4.35;;;;;;;;;;5036464;28;20025;-63
2022/01/07 04:23:02;;;;;;;6.22;5.63;;;;;;;;;;5037384;28;20155;-63
2022/01/07 04:25:27;;;;;;;5.25;4.75;;;;;;;;;;5040744;28;20092;-63
2022/01/07 04:28:00;;;;;;;12.05;4.57;;;;;;;;;;5041851;28;20075;-63
2022/01/07 04:30:29;;;;;;;6.53;4.15;;;;;;;;;;5038608;28;20033;-63
2022/01/07 04:32:55;;;;;;;5.53;4.53;;;;;;;;;;5039733;28;20025;-63
2022/01/07 04:35:22;;;;;;;5.32;4.82;;;;;;;;;;5037402;28;20033;-63
2022/01/07 04:37:48;;;;;;;5.00;3.78;;;;;;;;;;5039269;28;20036;-63
2022/01/07 04:40:16;;;;;;;5.00;4.50;;;;;;;;;;5036486;28;20078;-63
2022/01/07 04:42:41;;;;;;;4.90;4.40;;;;;;;;;;5039444;28;20121;-63
2022/01/07 04:45:07;;;;;;;4.53;4.13;;;;;;;;;;5037077;28;20124;-63
2022/01/07 04:47:36;;;;;;;5.22;4.72;;;;;;;;;;5039034;28;20481;-63
2022/01/07 04:50:06;;;;;;;6.65;5.22;;;;;;;;;;5036686;28;20116;-64
2022/01/07 04:52:32;;;;;;;7.68;4.45;;;;;;;;;;5040196;28;20048;-63
2022/01/07 04:54:57;;;;;;;5.97;4.60;;;;;;;;;;5037854;28;20021;-63
2022/01/07 04:57:23;;;;;;;5.13;4.57;;;;;;;;;;5037846;28;20048;-63
2022/01/07 04:59:48;;;;;;;17.02;5.82;;;;;;;;;;5038329;28;20034;-63
2022/01/07 05:02:13;;;;;;;4.95;4.53;;;;;;;;;;5039858;28;20029;-62
2022/01/07 05:04:39;;;;;;;8.82;4.65;;;;;;;;;;5037827;28;20084;-62
2022/01/07 05:07:04;;;;;;;7.00;5.38;;;;;;;;;;5040262;28;20037;-62
2022/01/07 05:09:30;;;;;;;5.53;5.03;;;;;;;;;;5036664;28;20044;-62
2022/01/07 05:11:55;;;;;;;6.25;4.20;;;;;;;;;;5037601;28;20473;-62
2022/01/07 05:14:20;;;;;;;5.45;4.95;;;;;;;;;;5036776;28;20064;-62
2022/01/07 05:16:46;;;;;;;4.40;4.00;;;;;;;;;;5040225;28;20131;-62
2022/01/07 05:19:13;;;;;;;5.03;4.63;;;;;;;;;;5038267;28;20033;-62
2022/01/07 05:21:39;;;;;;;5.32;4.82;;;;;;;;;;5040710;28;20036;-63
2022/01/07 05:24:05;;;;;;;5.75;5.25;;;;;;;;;;5039421;28;20041;-62
2022/01/07 05:26:31;;;;;;;6.43;5.50;;;;;;;;;;5038853;28;20371;-62
2022/01/07 05:28:56;;;;;;;5.00;4.28;;;;;;;;;;5039668;28;20037;-62
2022/01/07 05:31:22;;;;;;;5.93;5.40;;;;;;;;;;5039440;28;20040;-62
2022/01/07 05:33:52;;;;;;;5.75;4.88;;;;;;;;;;5038702;28;20033;-62
2022/01/07 05:36:19;;;;;;;6.45;5.32;;;;;;;;;;5041427;28;20048;-62
2022/01/07 05:38:44;;;;;;;5.20;4.55;;;;;;;;;;5040117;28;20374;-62
2022/01/07 05:41:10;;;;;;;6.03;5.30;;;;;;;;;;5041849;28;20033;-62
2022/01/07 05:43:35;;;;;;;5.03;4.53;;;;;;;;;;5042110;28;20099;-62
2022/01/07 05:46:00;;;;;;;5.18;4.68;;;;;;;;;;5039368;28;20474;-62
2022/01/07 05:48:26;;;;;;;6.57;4.45;;;;;;;;;;5042460;28;20037;-63
2022/01/07 05:50:51;;;;;;;6.20;5.68;;;;;;;;;;5041708;28;20039;-62
2022/01/07 05:53:16;;;;;;;6.00;5.00;;;;;;;;;;5044453;28;20064;-63
2022/01/07 05:55:42;;;;;;;6.15;4.65;;;;;;;;;;5041992;28;20049;-62
2022/01/07 05:58:08;;;;;;;6.35;5.05;;;;;;;;;;5040549;28;20034;-63
2022/01/07 06:00:33;;;;;;;6.10;5.50;;;;;;;;;;5038383;28;20485;-62
2022/01/07 06:02:59;;;;;;;5.80;4.78;;;;;;;;;;5041845;28;20036;-62
2022/01/07 06:05:24;;;;;;;5.65;5.00;;;;;;;;;;5042134;28;20033;-62
2022/01/07 06:07:50;;;;;;;4.82;4.43;;;;;;;;;;5041455;28;20044;-63
2022/01/07 06:10:15;;;;;;;5.30;4.80;;;;;;;;;;5037423;28;20052;-63
2022/01/07 06:12:41;;;;;;;5.05;4.25;;;;;;;;;;5035044;28;20041;-62
2022/01/07 06:15:07;;;;;;;4.55;4.15;;;;;;;;;;5038134;28;20028;-62
2022/01/07 06:17:33;;;;;;;6.60;4.88;;;;;;;;;;5035802;28;20033;-63
2022/01/07 06:19:58;;;;;;;6.68;5.20;;;;;;;;;;5038601;28;20608;-62
2022/01/07 06:22:24;;;;;;;5.38;4.55;;;;;;;;;;5037359;28;20032;-63
2022/01/07 06:24:49;;;;;;;6.72;5.20;;;;;;;;;;5038633;28;20107;-62
2022/01/07 06:27:14;;;;;;;5.90;5.10;;;;;;;;;;5039967;28;20029;-63
2022/01/07 06:29:40;;;;;;;5.05;4.13;;;;;;;;;;5039081;28;20645;-63
2022/01/07 06:32:06;;;;;;;4.97;4.50;;;;;;;;;;5037663;28;20032;-63
2022/01/07 06:34:32;;;;;;;7.15;4.90;;;;;;;;;;5037319;28;20367;-63
2022/01/07 06:37:02;;;;;;;5.50;4.35;;;;;;;;;;5028742;28;20035;-63
2022/01/07 06:39:29;;;;;;;6.18;5.00;;;;;;;;;;5041130;28;20139;-63
2022/01/07 06:41:57;;;;;;;5.95;4.85;;;;;;;;;;5039640;28;20107;-63
2022/01/07 06:44:22;;;;;;;5.55;4.80;;;;;;;;;;5039519;28;20033;-63
2022/01/07 06:46:48;;;;;;;5.18;4.60;;;;;;;;;;5038625;28;20084;-63
2022/01/07 06:49:13;;;;;;;9.05;6.18;;;;;;;;;;5040948;28;20362;-63
2022/01/07 06:51:40;;;;;;;6.07;4.70;;;;;;;;;;5038935;28;20065;-63
2022/01/07 06:54:07;;;;;;;4.70;4.30;;;;;;;;;;5040144;28;20026;-63
2022/01/07 06:56:33;;;;;;;5.82;5.22;;;;;;;;;;5043279;28;20516;-62
2022/01/07 06:58:59;;;;;;;5.25;4.75;;;;;;;;;;5040006;28;20174;-63
2022/01/07 07:01:24;;;;;;;5.38;4.88;;;;;;;;;;5041205;28;20021;-64
2022/01/07 07:03:49;;;;;;;4.93;4.53;;;;;;;;;;5041229;28;20036;-63
2022/01/07 07:06:15;;;;;;;4.10;3.70;;;;;;;;;;5038015;28;20029;-63
2022/01/07 07:08:40;;;;;;;6.47;5.88;;;;;;;;;;5036920;28;20494;-63
2022/01/07 07:11:06;;;;;;;6.65;5.47;;;;;;;;;;5036742;28;20116;-63
2022/01/07 07:13:32;;;;;;;6.53;4.13;;;;;;;;;;5038085;28;20049;-63
2022/01/07 07:15:58;;;;;;;4.85;4.43;;;;;;;;;;5034171;28;20033;-62
2022/01/07 07:18:23;;;;;;;5.18;4.10;;;;;;;;;;5037737;28;20067;-63
2022/01/07 07:20:48;;;;;;;6.95;4.65;;;;;;;;;;5037723;28;20564;-63
2022/01/07 07:23:14;;;;;;;4.75;4.28;;;;;;;;;;5039926;28;20039;-64
2022/01/07 07:25:39;;;;;;;6.13;5.53;;;;;;;;;;5038333;28;20112;-63
2022/01/07 07:28:05;;;;;;;6.18;5.57;;;;;;;;;;5036369;28;20041;-63
2022/01/07 07:30:36;;;;;;;4.90;4.50;;;;;;;;;;5034324;28;20112;-63
2022/01/07 07:33:28;;;;;;;5.30;4.80;;;;;;;;;;5039405;28;20048;-63
2022/01/07 07:38:35;;;;;;;6.35;5.03;;;;;;;;;;5039597;28;20036;-62
2022/01/07 07:41:02;;;;;;;5.20;4.70;;;;;;;;;;5036905;28;20020;-62
2022/01/07 07:43:27;;;;;;;6.70;5.25;;;;;;;;;;5038787;28;20861;-62
2022/01/07 07:45:53;;;;;;;5.15;4.65;;;;;;;;;;5036749;28;20088;-61
2022/01/07 07:48:18;;;;;;;4.78;4.38;;;;;;;;;;5039850;28;20028;-62
2022/01/07 07:50:44;;;;;;;8.73;4.55;;;;;;;;;;5038338;28;20045;-62
2022/01/07 07:53:09;;;;;;;9.63;5.75;;;;;;;;;;5037936;28;20099;-62
2022/01/07 07:55:35;;;;;;;5.63;5.10;;;;;;;;;;5040176;28;20078;-62
2022/01/07 07:58:00;;;;;;;6.63;5.75;;;;;;;;;;5037123;28;20044;-62
2022/01/07 08:00:26;;;;;;;5.72;5.22;;;;;;;;;;5039349;28;20041;-61
2022/01/07 08:02:51;;;;;;;6.18;5.22;;;;;;;;;;5038106;28;20058;-62
2022/01/07 08:05:16;;;;;;;16.30;5.45;;;;;;;;;;5035758;28;20029;-61
2022/01/07 08:07:42;;;;;;;6.25;5.63;;;;;;;;;;5039697;28;20475;-61
2022/01/07 08:10:08;;;;;;;5.45;4.95;;;;;;;;;;5036419;28;20032;-60
2022/01/07 08:18:08;;;;;;;5.80;5.28;;;;;;;;;;5038432;28;20025;-61
2022/01/07 08:20:34;;;;;;;4.53;4.10;;;;;;;;;;5038221;28;20144;-62
2022/01/07 08:23:00;;;;;;;4.38;3.95;;;;;;;;;;5037366;28;20095;-61
2022/01/07 08:25:25;;;;;;;6.15;5.55;;;;;;;;;;5041936;28;20051;-62
2022/01/07 08:27:50;;;;;;;5.13;4.55;;;;;;;;;;5037863;28;20040;-62
2022/01/07 08:30:23;;;;;;;5.30;4.80;;;;;;;;;;5037407;28;20036;-61
2022/01/07 08:35:35;;;;;;;5.57;5.07;;;;;;;;;;5038218;28;20037;-62
2022/01/07 08:38:01;;;;;;;5.55;5.05;;;;;;;;;;5037479;28;20043;-62
2022/01/07 08:40:26;;;;;;;6.68;6.00;;;;;;;;;;5038442;28;20041;-61
2022/01/07 08:42:51;;;;;;;5.53;4.97;;;;;;;;;;5036117;28;20098;-62
2022/01/07 08:45:17;;;;;;;5.78;5.22;;;;;;;;;;5038094;28;20117;-62
2022/01/07 08:47:42;;;;;;;7.93;6.10;;;;;;;;;;5039315;28;20124;-61
2022/01/07 08:50:08;;;;;;;5.80;5.15;;;;;;;;;;5041562;28;20029;-62
2022/01/07 08:52:33;;;;;;;16.92;5.68;;;;;;;;;;5038860;28;20056;-61
2022/01/07 08:54:58;;;;;;;6.20;5.60;;;;;;;;;;5040597;28;20025;-62
2022/01/07 08:57:24;;;;;;;5.55;5.05;;;;;;;;;;5040637;28;20529;-63
2022/01/07 08:59:50;;;;;;;6.07;5.47;;;;;;;;;;5039478;28;20037;-63
2022/01/07 09:02:15;;;;;;;5.43;4.57;;;;;;;;;;5037241;28;20033;-63
2022/01/07 09:04:41;;;;;;;5.10;4.60;;;;;;;;;;5039128;28;20072;-62
2022/01/07 09:07:06;;;;;;;6.15;5.55;;;;;;;;;;5040688;28;20045;-62
2022/01/07 09:09:31;;;;;;;6.88;6.18;;;;;;;;;;5042528;28;20095;-62
2022/01/07 09:11:57;;;;;;;7.15;6.00;;;;;;;;;;5041085;28;20060;-66
2022/01/07 09:14:22;;;;;;;6.43;5.70;;;;;;;;;;5043230;28;20029;-66
2022/01/07 09:16:48;;;;;;;6.03;5.43;;;;;;;;;;5037443;28;20044;-65
2022/01/07 09:19:13;;;;;;;5.45;4.88;;;;;;;;;;5041659;28;20075;-65
2022/01/07 09:21:38;;;;;;;6.88;4.97;;;;;;;;;;5040891;28;20037;-66
2022/01/07 09:24:04;;;;;;;5.35;4.85;;;;;;;;;;5041328;28;20017;-66
2022/01/07 09:26:29;;;;;;;4.95;4.55;;;;;;;;;;5044387;28;20125;-65
2022/01/07 09:28:55;;;;;;;6.07;5.55;;;;;;;;;;5040188;28;20064;-65
2022/01/07 09:31:20;;;;;;;5.35;4.85;;;;;;;;;;5042890;28;20025;-65
2022/01/07 09:33:46;;;;;;;9.52;5.55;;;;;;;;;;5041982;28;20470;-65
2022/01/07 09:36:11;;;;;;;5.45;4.97;;;;;;;;;;5041335;28;20021;-65
2022/01/07 09:38:36;;;;;;;7.47;4.93;;;;;;;;;;5040321;28;20052;-65
2022/01/07 09:41:02;;;;;;;5.18;4.78;;;;;;;;;;5043592;28;20107;-65
2022/01/07 09:43:28;;;;;;;5.68;5.10;;;;;;;;;;5043679;28;20406;-65
2022/01/07 09:45:53;;;;;;;5.22;4.65;;;;;;;;;;5039314;28;20083;-65
2022/01/07 09:48:18;;;;;;;5.15;4.50;;;;;;;;;;5041508;28;20091;-65
2022/01/07 09:50:45;;;;;;;5.80;4.65;;;;;;;;;;5041980;28;20038;-65
2022/01/07 09:53:13;;;;;;;9.52;4.75;;;;;;;;;;5044311;28;20037;-65
2022/01/07 09:55:40;;;;;;;6.70;6.00;;;;;;;;;;5042615;28;20030;-63
2022/01/07 09:58:07;;;;;;;5.00;4.60;;;;;;;;;;5043590;28;20024;-63
2022/01/07 10:00:45;;;;;;;5.55;5.05;;;;;;;;;;5040473;28;20059;-62
2022/01/07 10:03:16;;;;;;;4.95;4.50;;;;;;;;;;5043521;28;20036;-63
2022/01/07 10:05:49;;;;;;;6.07;5.05;;;;;;;;;;5038438;28;20037;-63
2022/01/07 10:08:17;;;;;;;5.45;4.95;;;;;;;;;;5038779;28;20075;-63
2022/01/07 10:10:43;;;;;;;5.20;4.70;;;;;;;;;;5038962;28;20170;-62
2022/01/07 10:13:08;;;;;;;6.38;4.60;;;;;;;;;;5038688;28;20425;-63
2022/01/07 10:15:39;;;;;;;6.05;5.45;;;;;;;;;;5041823;28;20099;-63
2022/01/07 10:18:13;;;;;;;4.93;4.43;;;;;;;;;;5037150;28;20112;-63
2022/01/07 10:20:43;;;;;;;6.25;5.38;;;;;;;;;;5035568;28;20140;-64
2022/01/07 10:23:13;;;;;;;4.63;4.05;;;;;;;;;;5039088;28;20076;-64
2022/01/07 10:25:45;;;;;;;5.35;4.85;;;;;;;;;;5043471;28;20032;-64
2022/01/07 10:28:13;;;;;;;5.63;4.47;;;;;;;;;;5039633;28;20051;-64
2022/01/07 10:30:39;;;;;;;9.27;5.90;;;;;;;;;;5040246;28;20068;-64
2022/01/07 10:33:28;;;;;;;6.30;5.70;;;;;;;;;;5041521;28;20487;-64
2022/01/07 10:36:18;;;;;;;5.18;4.68;;;;;;;;;;5037172;28;20238;-64
2022/01/07 10:39:00;;;;;;;5.20;4.70;;;;;;;;;;5039843;28;20063;-64
2022/01/07 10:41:25;;;;;;;4.93;4.43;;;;;;;;;;5037179;28;20029;-64
2022/01/07 10:43:52;;;;;;;7.22;5.30;;;;;;;;;;5038254;28;20367;-65
2022/01/07 10:46:27;;;;;;;5.85;5.07;;;;;;;;;;5041434;28;20041;-64
2022/01/07 10:48:56;;;;;;;4.88;4.45;;;;;;;;;;5038961;28;20043;-66
2022/01/07 10:51:23;;;;;;;8.10;4.43;;;;;;;;;;5038562;28;20056;-67
2022/01/07 10:54:00;;;;;;;6.32;5.72;;;;;;;;;;5039241;28;20099;-64
2022/01/07 10:56:37;;;;;;;6.57;5.25;;;;;;;;;;5040825;28;20033;-65
2022/01/07 10:59:10;;;;;;;6.28;5.70;;;;;;;;;;5038328;28;20037;-65
2022/01/07 11:01:47;;;;;;;6.25;4.85;;;;;;;;;;5037889;28;20033;-65
2022/01/07 11:04:17;;;;;;;4.70;4.30;;;;;;;;;;5046672;28;20128;-65
2022/01/07 11:06:45;;;;;;;3.83;3.42;;;;;;;;;;5041228;28;20052;-64
2022/01/07 11:09:12;;;;;;;5.53;4.63;;;;;;;;;;5041878;28;20036;-64
2022/01/07 11:11:57;;;;;;;4.57;4.18;;;;;;;;;;5042477;28;20037;-64
2022/01/07 11:14:28;;;;;;;5.00;4.50;;;;;;;;;;5037392;28;20029;-63
2022/01/07 11:16:57;;;;;;;5.72;5.15;;;;;;;;;;5041359;28;20347;-63
2022/01/07 11:19:27;;;;;;;4.97;4.38;;;;;;;;;;5040885;28;20033;-64
2022/01/07 11:21:54;;;;;;;7.25;4.78;;;;;;;;;;5039155;28;20043;-63
2022/01/07 11:24:46;;;;;;;3.85;3.53;;;;;;;;;;5041038;28;20509;-64
2022/01/07 11:27:14;;;;;;;6.03;4.15;;;;;;;;;;5039259;28;20035;-65
2022/01/07 11:29:50;;;;;;;6.50;4.35;;;;;;;;;;5038189;28;20041;-64
2022/01/07 11:32:35;;;;;;;7.57;5.28;;;;;;;;;;5039976;28;20078;-66
2022/01/07 11:37:47;;;;;;;5.70;4.47;;;;;;;;;;5038423;28;20037;-63
2022/01/07 11:40:28;;;;;;;5.72;4.72;;;;;;;;;;5038780;28;20104;-62
2022/01/07 11:42:55;;;;;;;4.82;4.30;;;;;;;;;;5040435;28;20112;-62
2022/01/07 11:45:26;;;;;;;4.18;3.72;;;;;;;;;;5038065;28;20475;-65
2022/01/07 11:47:52;;;;;;;4.05;3.65;;;;;;;;;;5037101;28;20102;-64
2022/01/07 11:50:18;;;;;;;7.88;5.10;;;;;;;;;;5035257;28;20070;-64
2022/01/07 11:52:55;;;;;;;4.63;4.20;;;;;;;;;;5037011;28;20045;-64
2022/01/07 11:55:28;;;;;;;5.43;4.43;;;;;;;;;;5039350;28;20021;-63
2022/01/07 11:58:03;;;;;;;5.28;3.53;;;;;;;;;;5038925;28;20033;-63
2022/01/07 12:00:59;;;;;;;5.13;4.47;;;;;;;;;;5038025;28;20037;-64
2022/01/07 12:03:42;;;;;;;6.80;4.72;;;;;;;;;;5037438;28;20029;-63
2022/01/07 12:06:23;;;;;;;8.45;4.57;;;;;;;;;;5039623;28;20056;-63
2022/01/07 12:09:05;;;;;;;6.30;3.38;;;;;;;;;;5038424;28;20033;-65
2022/01/07 12:12:01;;;;;;;4.40;4.00;;;;;;;;;;5039113;28;20071;-64
2022/01/07 12:14:33;;;;;;;3.75;3.45;;;;;;;;;;5036070;28;20123;-64
2022/01/07 12:17:00;;;;;;;4.80;4.32;;;;;;;;;;5040884;28;20451;-64
2022/01/07 12:19:28;;;;;;;4.30;3.88;;;;;;;;;;5039700;28;20056;-64
2022/01/07 12:21:56;;;;;;;4.70;4.30;;;;;;;;;;5039746;28;20060;-63
2022/01/07 12:24:27;;;;;;;4.22;3.83;;;;;;;;;;5038364;28;20106;-64
2022/01/07 12:27:07;;;;;;;5.55;4.82;;;;;;;;;;5040362;28;20098;-64
2022/01/07 12:29:35;;;;;;;11.15;3.80;;;;;;;;;;5036546;28;20117;-64
2022/01/07 12:32:02;;;;;;;4.40;4.00;;;;;;;;;;5038785;28;20095;-64
2022/01/07 12:34:30;;;;;;;4.95;4.45;;;;;;;;;;5037769;28;20358;-64
2022/01/07 12:37:01;;;;;;;5.32;4.70;;;;;;;;;;5039821;28;20053;-64
2022/01/07 12:39:32;;;;;;;4.57;4.07;;;;;;;;;;5041643;28;20053;-64
2022/01/07 12:41:57;;;;;;;5.75;4.20;;;;;;;;;;5042451;28;20029;-64
2022/01/07 12:44:24;;;;;;;4.18;3.70;;;;;;;;;;5045623;28;20040;-64
2022/01/07 12:46:56;;;;;;;4.88;3.78;;;;;;;;;;5045932;28;20112;-64
2022/01/07 12:49:33;;;;;;;3.80;3.22;;;;;;;;;;5039558;28;20025;-64
2022/01/07 12:52:04;;;;;;;4.28;3.88;;;;;;;;;;5045488;28;20029;-65
2022/01/07 12:54:29;;;;;;;4.50;4.10;;;;;;;;;;5042245;28;20051;-66
2022/01/07 12:56:56;;;;;;;4.28;3.88;;;;;;;;;;5039098;28;20020;-65
2022/01/07 12:59:24;;;;;;;4.63;4.22;;;;;;;;;;5051440;28;20428;-65
2022/01/07 13:01:50;;;;;;;3.58;3.10;;;;;;;;;;5044035;28;20033;-64
2022/01/07 13:04:19;;;;;;;3.92;3.53;;;;;;;;;;5043468;28;20106;-64
2022/01/07 13:06:48;;;;;;;4.78;3.72;;;;;;;;;;5048369;28;20045;-64
2022/01/07 13:09:21;;;;;;;4.85;3.95;;;;;;;;;;5041760;28;20040;-64
2022/01/07 13:11:49;;;;;;;4.68;4.07;;;;;;;;;;5039568;28;20487;-64
2022/01/07 13:14:16;;;;;;;3.72;3.28;;;;;;;;;;5039779;28;20029;-64
2022/01/07 13:16:41;;;;;;;5.95;4.68;;;;;;;;;;5041968;28;20033;-64
2022/01/07 13:19:09;;;;;;;4.25;3.83;;;;;;;;;;5038532;28;20048;-65
2022/01/07 13:21:37;;;;;;;4.75;4.35;;;;;;;;;;5042785;28;20032;-65
2022/01/07 13:24:03;;;;;;;3.58;3.28;;;;;;;;;;5045649;28;20029;-66
2022/01/07 13:26:34;;;;;;;7.10;3.80;;;;;;;;;;5041642;28;20399;-65
2022/01/07 13:29:13;;;;;;;;;;;;;;;;;;5040296;28;20033;-65
2022/01/07 13:31:40;;;;;;;5.22;4.63;;;;;;;;;;5041361;28;19914;-65
2022/01/07 13:34:05;;;;;;;3.67;3.28;;;;;;;;;;5041545;28;20037;-67
2022/01/07 13:36:36;;;;;;;4.60;4.10;;;;;;;;;;5042655;28;20417;-67
2022/01/07 13:39:01;;;;;;;5.13;4.63;;;;;;;;;;5042819;28;20041;-67
2022/01/07 13:41:27;;;;;;;5.47;3.58;;;;;;;;;;5037728;28;20041;-68
2022/01/07 13:44:03;;;;;;;4.35;3.88;;;;;;;;;;5041877;28;20443;-67
2022/01/07 13:46:28;;;;;;;3.92;3.47;;;;;;;;;;5040090;28;20180;-68
2022/01/07 13:49:09;;;;;;;8.05;4.65;;;;;;;;;;5040394;28;20029;-67
2022/01/07 13:51:37;;;;;;;4.50;4.07;;;;;;;;;;5042431;28;20094;-68
2022/01/07 13:54:19;;;;;;;4.90;4.32;;;;;;;;;;5041240;28;20037;-63
2022/01/07 13:57:00;;;;;;;4.00;3.50;;;;;;;;;;5042563;28;20051;-63
2022/01/07 13:59:26;;;;;;;15.57;4.00;;;;;;;;;;5041863;28;20041;-63
2022/01/07 14:01:53;;;;;;;4.68;4.20;;;;;;;;;;5041975;28;20131;-62
2022/01/07 14:04:21;;;;;;;3.80;3.40;;;;;;;;;;5042248;28;20030;-62
2022/01/07 14:06:47;;;;;;;3.55;3.20;;;;;;;;;;5040235;28;20040;-65
2022/01/07 14:09:15;;;;;;;4.43;4.03;;;;;;;;;;5039672;28;20028;-63
2022/01/07 14:11:41;;;;;;;4.57;4.15;;;;;;;;;;5041756;28;20120;-63
2022/01/07 14:14:16;;;;;;;7.65;5.07;;;;;;;;;;5042170;28;20104;-63
2022/01/07 14:16:46;;;;;;;4.35;3.20;;;;;;;;;;5040588;28;20034;-62
2022/01/07 14:19:13;;;;;;;3.58;3.15;;;;;;;;;;5039914;28;20041;-63
2022/01/07 14:21:40;;;;;;;4.55;4.15;;;;;;;;;;5042407;28;20048;-63
2022/01/07 14:24:05;;;;;;;6.28;3.92;;;;;;;;;;5040686;28;20112;-63
2022/01/07 14:26:32;;;;;;;4.25;3.85;;;;;;;;;;5038599;28;20124;-62
2022/01/07 14:28:59;;;;;;;5.68;4.68;;;;;;;;;;5037964;28;20029;-63
2022/01/07 14:31:25;;;;;;;4.25;3.85;;;;;;;;;;5039125;28;20029;-62
2022/01/07 14:33:51;;;;;;;4.68;4.22;;;;;;;;;;5042659;28;20102;-62
2022/01/07 14:36:17;;;;;;;4.95;4.15;;;;;;;;;;5041180;28;20091;-63
2022/01/07 14:38:44;;;;;;;5.28;4.78;;;;;;;;;;5043602;28;20087;-62
2022/01/07 14:41:10;;;;;;;4.95;4.43;;;;;;;;;;5041621;28;20026;-63
2022/01/07 14:43:36;;;;;;;4.25;3.85;;;;;;;;;;5042020;28;20026;-62
2022/01/07 14:46:02;;;;;;;6.50;3.67;;;;;;;;;;5043509;28;20034;-62
2022/01/07 14:48:29;;;;;;;4.40;4.00;;;;;;;;;;5040635;28;20471;-62
2022/01/07 14:50:54;;;;;;;4.57;4.18;;;;;;;;;;5042736;28;20029;-62
2022/01/07 14:53:20;;;;;;;4.38;3.97;;;;;;;;;;5040334;28;20052;-62
2022/01/07 14:55:46;;;;;;;6.07;4.63;;;;;;;;;;5040599;28;20469;-62
2022/01/07 14:58:12;;;;;;;4.38;3.80;;;;;;;;;;5039343;28;20021;-62
2022/01/07 15:00:40;;;;;;;4.15;3.67;;;;;;;;;;5035902;28;20095;-62